Time;durP1;ratioP1;P1;durP2;ratioP2;P2;SDS_P1;SDS_P2;PMS_P1;PMS_P2;Temp;Humidity;BMP_temperature;BMP_pressure;BME280_temperature;BME280_humidity;BME280_pressure;Samples;Min_cycle;Max_cycle;Signal;HPM_P1;HPM_P2
2022/03/19 00:02:02;;;;;;;79.40;47.63;;;4.70;99.90;;;;;;5055177;28;20531;-68
2022/03/19 00:04:29;;;;;;;70.97;48.70;;;4.60;99.90;;;;;;5051869;28;20997;-67
2022/03/19 00:06:56;;;;;;;75.47;46.90;;;4.60;99.90;;;;;;5053318;28;20467;-67
2022/03/19 00:09:23;;;;;;;85.67;50.13;;;4.40;99.90;;;;;;5053233;28;20531;-68
2022/03/19 00:11:49;;;;;;;69.70;48.90;;;4.40;99.90;;;;;;5053567;28;20823;-69
2022/03/19 00:14:16;;;;;;;70.80;48.13;;;4.40;99.90;;;;;;5045617;28;20440;-68
2022/03/19 00:16:45;;;;;;;78.27;50.30;;;4.40;99.90;;;;;;5053203;28;20543;-67
2022/03/19 00:19:12;;;;;;;71.43;49.73;;;4.40;99.90;;;;;;5053036;28;20479;-68
2022/03/19 00:21:39;;;;;;;77.77;49.00;;;4.60;99.90;;;;;;5053131;28;20440;-68
2022/03/19 00:24:07;;;;;;;86.73;52.93;;;4.70;99.90;;;;;;5051597;28;20490;-68
2022/03/19 00:26:34;;;;;;;81.60;51.83;;;4.80;99.90;;;;;;5053014;28;20470;-68
2022/03/19 00:29:01;;;;;;;77.03;48.83;;;4.80;99.90;;;;;;5053099;28;20454;-71
2022/03/19 00:31:28;;;;;;;78.10;50.20;;;4.90;99.90;;;;;;5052632;28;20451;-67
2022/03/19 00:33:57;;;;;;;75.63;48.83;;;4.90;99.90;;;;;;5057931;28;20432;-69
2022/03/19 00:36:24;;;;;;;73.93;48.73;;;4.90;99.90;;;;;;5051705;28;20440;-68
2022/03/19 00:38:51;;;;;;;72.37;49.37;;;4.90;99.90;;;;;;5052943;28;20448;-68
2022/03/19 00:41:18;;;;;;;77.00;48.67;;;4.90;99.90;;;;;;5052679;28;20436;-70
2022/03/19 00:43:44;;;;;;;76.73;49.77;;;4.90;99.90;;;;;;5051900;28;20485;-68
2022/03/19 00:46:11;;;;;;;70.93;47.57;;;4.90;99.90;;;;;;5051283;28;20447;-68
2022/03/19 00:48:38;;;;;;;71.80;48.20;;;4.80;99.90;;;;;;5052478;28;20444;-68
2022/03/19 00:51:06;;;;;;;66.73;46.30;;;4.70;99.90;;;;;;5051908;28;20450;-68
2022/03/19 00:53:33;;;;;;;71.23;46.90;;;4.70;99.90;;;;;;5052033;28;20444;-68
2022/03/19 00:56:00;;;;;;;71.17;49.83;;;4.70;99.90;;;;;;5051223;28;21079;-68
2022/03/19 00:58:27;;;;;;;75.17;47.40;;;4.50;99.90;;;;;;5052054;28;20464;-67
2022/03/19 01:00:54;;;;;;;64.33;43.13;;;4.50;99.90;;;;;;5051945;28;20440;-68
2022/03/19 01:03:21;;;;;;;67.57;46.53;;;4.40;99.90;;;;;;5054538;28;20476;-68
2022/03/19 01:05:49;;;;;;;71.97;48.40;;;4.40;99.90;;;;;;5050874;28;20527;-68
2022/03/19 01:08:17;;;;;;;75.37;48.40;;;4.30;99.90;;;;;;5051890;28;20555;-68
2022/03/19 01:10:44;;;;;;;71.50;48.40;;;4.30;99.90;;;;;;5051732;28;20448;-68
2022/03/19 01:13:11;;;;;;;73.17;48.37;;;4.30;99.90;;;;;;5051558;28;20506;-68
2022/03/19 01:15:38;;;;;;;71.67;47.23;;;4.20;99.90;;;;;;5050828;28;20447;-67
2022/03/19 01:18:06;;;;;;;66.70;46.87;;;4.20;99.90;;;;;;5051401;28;20479;-68
2022/03/19 01:20:33;;;;;;;69.07;47.67;;;4.30;99.90;;;;;;5051732;28;20444;-67
2022/03/19 01:23:00;;;;;;;66.63;45.97;;;4.30;99.90;;;;;;5051208;28;20551;-69
2022/03/19 01:25:29;;;;;;;72.57;45.87;;;4.30;99.90;;;;;;5050975;28;20444;-68
2022/03/19 01:27:55;;;;;;;66.27;47.67;;;4.30;99.90;;;;;;5051260;28;20468;-69
2022/03/19 01:30:24;;;;;;;68.03;43.70;;;4.30;99.90;;;;;;5051345;28;20497;-68
2022/03/19 01:32:51;;;;;;;63.57;45.83;;;4.30;99.90;;;;;;5050840;28;20452;-68
2022/03/19 01:35:19;;;;;;;66.03;44.13;;;4.20;99.90;;;;;;5050703;28;20432;-68
2022/03/19 01:37:47;;;;;;;64.53;44.20;;;4.20;99.90;;;;;;5051496;28;20555;-67
2022/03/19 01:40:15;;;;;;;71.80;44.00;;;4.20;99.90;;;;;;5051398;28;20444;-69
2022/03/19 01:42:45;;;;;;;64.77;44.60;;;4.10;99.90;;;;;;5050705;28;20429;-69
2022/03/19 01:45:15;;;;;;;72.60;47.00;;;4.10;99.90;;;;;;5050285;28;20878;-68
2022/03/19 01:47:42;;;;;;;70.00;46.20;;;4.10;99.90;;;;;;5050707;28;20547;-67
2022/03/19 01:50:11;;;;;;;66.70;43.40;;;4.00;99.90;;;;;;5051125;28;20444;-69
2022/03/19 01:52:38;;;;;;;64.53;45.90;;;4.00;99.90;;;;;;5050794;28;20455;-69
2022/03/19 01:55:06;;;;;;;63.40;43.13;;;3.90;99.90;;;;;;5050156;28;20482;-68
2022/03/19 01:57:37;;;;;;;65.00;43.50;;;4.00;99.90;;;;;;5050836;28;20458;-68
2022/03/19 02:00:07;;;;;;;65.23;45.07;;;4.10;99.90;;;;;;5051407;28;20436;-68
2022/03/19 02:02:35;;;;;;;67.80;45.10;;;4.20;99.90;;;;;;5054703;28;20439;-67
2022/03/19 02:05:04;;;;;;;62.60;41.37;;;4.20;99.90;;;;;;5049712;28;20503;-68
2022/03/19 02:07:31;;;;;;;65.10;44.00;;;4.10;99.90;;;;;;5050838;28;20550;-67
2022/03/19 02:09:59;;;;;;;61.03;42.37;;;4.20;99.90;;;;;;5051044;28;20471;-67
2022/03/19 02:12:27;;;;;;;58.57;43.10;;;4.20;99.90;;;;;;5050515;28;20462;-67
2022/03/19 02:14:54;;;;;;;58.70;41.47;;;4.20;99.90;;;;;;5049770;28;20440;-68
2022/03/19 02:17:24;;;;;;;68.90;45.57;;;4.30;99.90;;;;;;5050834;28;20483;-68
2022/03/19 02:19:52;;;;;;;64.13;43.83;;;4.30;99.90;;;;;;5050176;28;20921;-68
2022/03/19 02:22:19;;;;;;;57.97;41.87;;;4.30;99.90;;;;;;5050296;28;20451;-68
2022/03/19 02:27:36;;;;;;;60.70;43.50;;;4.30;99.90;;;;;;5016495;28;20550;-67
2022/03/19 02:30:06;;;;;;;59.03;41.47;;;4.30;99.90;;;;;;5050514;28;20446;-67
2022/03/19 02:32:33;;;;;;;58.83;39.90;;;4.20;99.90;;;;;;5051729;28;20801;-68
2022/03/19 02:35:01;;;;;;;57.13;42.13;;;4.10;99.90;;;;;;5048861;28;21056;-68
2022/03/19 02:37:38;;;;;;;61.50;41.50;;;4.10;99.90;;;;;;5050057;28;20547;-68
2022/03/19 02:40:10;;;;;;;58.70;43.20;;;4.10;99.90;;;;;;5050190;28;20853;-69
2022/03/19 02:42:37;;;;;;;62.23;41.47;;;4.10;99.90;;;;;;5043594;28;20432;-68
2022/03/19 02:45:06;;;;;;;59.93;42.47;;;4.20;99.90;;;;;;5049042;28;20483;-67
2022/03/19 02:47:33;;;;;;;59.07;44.40;;;4.20;99.90;;;;;;5049705;28;20571;-69
2022/03/19 02:50:00;;;;;;;58.87;39.93;;;4.20;99.90;;;;;;5049974;28;20446;-67
2022/03/19 02:52:27;;;;;;;67.17;43.03;;;4.20;99.90;;;;;;5049512;28;20448;-68
2022/03/19 02:54:54;;;;;;;60.00;42.30;;;4.10;99.90;;;;;;5049416;28;20440;-69
2022/03/19 02:57:22;;;;;;;57.90;38.30;;;4.20;99.90;;;;;;5049880;28;20472;-69
2022/03/19 02:59:49;;;;;;;54.70;39.93;;;4.20;99.90;;;;;;5049922;28;20444;-68
2022/03/19 03:02:16;;;;;;;61.03;40.53;;;4.30;99.90;;;;;;5054023;28;20509;-68
2022/03/19 03:04:43;;;;;;;60.40;41.17;;;4.30;99.90;;;;;;5049457;28;20484;-68
2022/03/19 03:07:10;;;;;;;57.47;40.27;;;4.20;99.90;;;;;;5049598;28;20471;-68
2022/03/19 03:09:37;;;;;;;57.80;38.80;;;4.10;99.90;;;;;;5049813;28;20456;-69
2022/03/19 03:12:06;;;;;;;61.23;42.13;;;4.10;99.90;;;;;;5049770;28;20509;-68
2022/03/19 03:14:34;;;;;;;59.03;41.20;;;4.00;99.90;;;;;;5047810;28;20444;-69
2022/03/19 03:17:02;;;;;;;60.73;39.53;;;4.00;99.90;;;;;;5049403;28;21011;-68
2022/03/19 03:19:28;;;;;;;63.20;42.30;;;3.90;99.90;;;;;;5049772;28;20447;-68
2022/03/19 03:21:55;;;;;;;64.57;43.43;;;3.90;99.90;;;;;;5049558;28;20502;-68
2022/03/19 03:24:22;;;;;;;57.53;41.37;;;3.90;99.90;;;;;;5048652;28;20862;-69
2022/03/19 03:26:50;;;;;;;61.03;42.77;;;3.90;99.90;;;;;;5049434;28;21250;-69
2022/03/19 03:29:17;;;;;;;59.53;41.90;;;3.90;99.90;;;;;;5049558;28;20895;-68
2022/03/19 03:31:46;;;;;;;67.23;41.20;;;3.90;99.90;;;;;;5049693;28;20452;-68
2022/03/19 03:34:13;;;;;;;56.17;39.07;;;4.00;99.90;;;;;;5050370;28;20926;-68
2022/03/19 03:36:40;;;;;;;61.93;40.10;;;4.00;99.90;;;;;;5049179;28;20487;-68
2022/03/19 03:39:07;;;;;;;68.20;43.90;;;4.00;99.90;;;;;;5049497;28;20452;-68
2022/03/19 03:41:34;;;;;;;58.73;41.63;;;4.00;99.90;;;;;;5049481;28;20444;-68
2022/03/19 03:44:01;;;;;;;55.87;39.50;;;4.10;99.90;;;;;;5048605;28;20451;-68
2022/03/19 03:46:27;;;;;;;61.07;38.97;;;4.10;99.90;;;;;;5048995;28;20875;-68
2022/03/19 03:48:56;;;;;;;61.03;40.40;;;4.00;99.90;;;;;;5049153;28;20987;-67
2022/03/19 03:51:23;;;;;;;57.53;39.40;;;4.10;99.90;;;;;;5049305;28;20933;-68
2022/03/19 03:53:49;;;;;;;58.43;40.13;;;4.10;99.90;;;;;;5048941;28;21206;-66
2022/03/19 03:56:16;;;;;;;62.10;41.40;;;4.10;99.90;;;;;;5048636;28;20528;-69
2022/03/19 03:58:45;;;;;;;53.43;37.83;;;4.30;99.90;;;;;;5049577;28;20432;-69
2022/03/19 04:01:12;;;;;;;59.63;40.17;;;4.40;99.90;;;;;;5049717;28;20448;-68
2022/03/19 04:03:39;;;;;;;56.27;39.80;;;4.30;99.90;;;;;;5049242;28;20440;-69
2022/03/19 04:06:07;;;;;;;57.70;40.17;;;4.30;99.90;;;;;;5048393;28;20483;-68
2022/03/19 04:08:34;;;;;;;55.23;38.70;;;4.40;99.90;;;;;;5049232;28;20556;-68
2022/03/19 04:11:01;;;;;;;55.63;40.37;;;4.40;99.90;;;;;;5048838;28;20522;-70
2022/03/19 04:13:28;;;;;;;58.80;40.13;;;4.40;99.90;;;;;;5048968;28;20475;-68
2022/03/19 04:15:55;;;;;;;57.30;38.87;;;4.50;99.90;;;;;;5048241;28;20436;-68
2022/03/19 04:18:22;;;;;;;61.67;41.10;;;4.50;99.90;;;;;;5049101;28;20506;-69
2022/03/19 04:20:49;;;;;;;56.30;39.07;;;4.50;99.90;;;;;;5049163;28;20523;-68
2022/03/19 04:23:17;;;;;;;66.67;41.53;;;4.50;99.90;;;;;;5048926;28;20451;-70
2022/03/19 04:25:44;;;;;;;54.27;38.93;;;4.60;99.90;;;;;;5049372;28;20468;-70
2022/03/19 04:28:12;;;;;;;57.30;37.97;;;4.70;99.90;;;;;;5053091;28;20496;-68
2022/03/19 04:30:41;;;;;;;59.17;37.80;;;4.60;99.90;;;;;;5052787;28;20514;-70
2022/03/19 04:33:08;;;;;;;57.00;40.27;;;4.60;99.90;;;;;;5056720;28;20436;-68
2022/03/19 04:38:22;;;;;;;58.33;40.30;;;4.50;99.90;;;;;;5052713;28;20443;-68
2022/03/19 04:40:53;;;;;;;57.50;37.70;;;4.50;99.90;;;;;;5052748;28;20446;-69
2022/03/19 04:43:21;;;;;;;59.03;38.80;;;4.40;99.90;;;;;;5052390;28;20455;-67
2022/03/19 04:45:48;;;;;;;57.23;37.87;;;4.30;99.90;;;;;;5049360;28;20493;-67
2022/03/19 04:48:15;;;;;;;56.03;38.27;;;4.40;99.90;;;;;;5051834;28;20455;-69
2022/03/19 04:50:44;;;;;;;53.20;38.30;;;4.30;99.90;;;;;;5052282;28;20432;-69
2022/03/19 04:53:13;;;;;;;56.07;38.70;;;4.30;99.90;;;;;;5050756;28;20480;-68
2022/03/19 04:55:41;;;;;;;55.07;38.00;;;4.30;99.90;;;;;;5051348;28;20515;-68
2022/03/19 04:58:09;;;;;;;54.80;37.67;;;4.30;99.90;;;;;;5052029;28;20456;-68
2022/03/19 05:00:37;;;;;;;52.27;38.37;;;4.30;99.90;;;;;;5052500;28;20569;-69
2022/03/19 05:03:04;;;;;;;52.87;37.47;;;4.30;99.90;;;;;;5051597;28;20861;-69
2022/03/19 05:05:31;;;;;;;50.17;37.87;;;4.30;99.90;;;;;;5051403;28;20492;-68
2022/03/19 05:07:58;;;;;;;53.93;39.23;;;4.20;99.90;;;;;;5051925;28;20456;-68
2022/03/19 05:13:11;;;;;;;57.00;39.17;;;4.10;99.90;;;;;;5051573;28;20427;-68
2022/03/19 05:15:38;;;;;;;52.30;35.60;;;4.00;99.90;;;;;;5050941;28;20954;-70
2022/03/19 05:18:05;;;;;;;51.33;35.60;;;3.90;99.90;;;;;;5051943;28;20475;-69
2022/03/19 05:20:32;;;;;;;60.30;38.80;;;3.80;99.90;;;;;;5052214;28;20487;-69
2022/03/19 05:22:59;;;;;;;53.73;36.80;;;3.70;99.90;;;;;;5051452;28;20950;-69
2022/03/19 05:25:26;;;;;;;57.37;38.93;;;3.50;99.90;;;;;;5050847;28;20516;-68
2022/03/19 05:27:53;;;;;;;63.67;39.67;;;3.40;99.90;;;;;;5051500;28;20472;-70
2022/03/19 05:30:22;;;;;;;55.30;37.40;;;3.30;99.90;;;;;;5051425;28;20539;-66
2022/03/19 05:32:49;;;;;;;49.57;37.47;;;3.30;99.90;;;;;;5051557;28;20444;-68
2022/03/19 05:35:18;;;;;;;56.43;38.87;;;3.20;99.90;;;;;;5051013;28;20452;-68
2022/03/19 05:37:46;;;;;;;59.70;40.60;;;3.10;99.90;;;;;;5050711;28;20914;-70
2022/03/19 05:40:14;;;;;;;52.37;37.70;;;3.10;99.90;;;;;;5051368;28;21191;-69
2022/03/19 05:42:41;;;;;;;56.50;40.27;;;3.10;99.90;;;;;;5051294;28;20458;-68
2022/03/19 05:45:09;;;;;;;62.63;39.57;;;3.10;99.90;;;;;;5050295;28;20884;-68
2022/03/19 05:47:38;;;;;;;56.03;39.67;;;3.10;99.90;;;;;;5051307;28;20475;-68
2022/03/19 05:50:06;;;;;;;59.73;38.00;;;3.10;99.90;;;;;;5051458;28;21025;-68
2022/03/19 05:52:33;;;;;;;58.53;37.83;;;3.10;99.90;;;;;;5051577;28;20480;-67
2022/03/19 05:54:59;;;;;;;55.27;38.10;;;3.20;99.90;;;;;;5050150;28;20444;-69
2022/03/19 05:57:26;;;;;;;54.50;37.70;;;3.20;99.90;;;;;;5051516;28;20985;-66
2022/03/19 05:59:53;;;;;;;55.97;40.30;;;3.30;99.90;;;;;;5051443;28;20479;-68
2022/03/19 06:02:20;;;;;;;58.47;40.47;;;3.30;99.90;;;;;;5051618;28;20455;-69
2022/03/19 06:04:48;;;;;;;56.80;40.53;;;3.30;99.90;;;;;;5049740;28;21067;-67
2022/03/19 06:07:15;;;;;;;53.10;37.67;;;3.40;99.90;;;;;;5050891;28;20480;-68
2022/03/19 06:09:42;;;;;;;61.20;42.13;;;3.40;99.90;;;;;;5051099;28;21214;-68
2022/03/19 06:12:09;;;;;;;60.73;40.43;;;3.60;99.90;;;;;;5051083;28;20455;-68
2022/03/19 06:14:36;;;;;;;58.77;40.13;;;3.60;99.90;;;;;;5043211;28;20452;-69
2022/03/19 06:17:03;;;;;;;58.47;40.97;;;3.70;99.90;;;;;;5050063;28;20546;-68
2022/03/19 06:19:30;;;;;;;57.00;40.33;;;3.80;99.90;;;;;;5051149;28;20462;-68
2022/03/19 06:21:58;;;;;;;65.43;42.80;;;3.80;99.90;;;;;;5050580;28;20514;-67
2022/03/19 06:24:25;;;;;;;48.77;37.53;;;3.90;99.90;;;;;;5049817;28;20466;-68
2022/03/19 06:26:52;;;;;;;52.50;38.30;;;3.90;99.90;;;;;;5050587;28;20492;-68
2022/03/19 06:29:19;;;;;;;58.20;40.10;;;4.00;99.90;;;;;;5050739;28;20452;-67
2022/03/19 06:31:46;;;;;;;55.43;37.50;;;4.10;99.90;;;;;;5050800;28;20456;-69
2022/03/19 06:34:13;;;;;;;56.87;36.70;;;4.20;99.90;;;;;;5049522;28;20491;-70
2022/03/19 06:39:25;;;;;;;50.73;37.23;;;4.40;99.90;;;;;;5050460;28;20419;-69
2022/03/19 06:41:52;;;;;;;58.93;39.70;;;4.50;99.90;;;;;;5050379;28;20529;-68
2022/03/19 06:44:19;;;;;;;52.80;39.87;;;4.60;99.90;;;;;;5048967;28;20534;-70
2022/03/19 06:46:46;;;;;;;59.13;38.60;;;4.80;99.90;;;;;;5049526;28;20496;-69
2022/03/19 06:49:12;;;;;;;57.70;38.63;;;4.90;99.90;;;;;;5043195;28;20456;-69
2022/03/19 06:51:40;;;;;;;55.70;39.53;;;5.00;99.90;;;;;;5050227;28;20470;-67
2022/03/19 06:54:07;;;;;;;52.90;35.63;;;5.10;99.90;;;;;;5048933;28;20482;-69
2022/03/19 06:56:35;;;;;;;49.87;37.33;;;5.20;99.90;;;;;;5049971;28;20468;-69
2022/03/19 06:59:02;;;;;;;49.87;37.43;;;5.30;99.90;;;;;;5049735;28;20499;-69
2022/03/19 07:01:29;;;;;;;51.17;36.77;;;5.30;99.90;;;;;;5049782;28;20487;-69
2022/03/19 07:03:56;;;;;;;48.73;35.13;;;5.50;99.90;;;;;;5049590;28;20456;-68
2022/03/19 07:06:22;;;;;;;53.30;37.47;;;5.60;99.90;;;;;;5048979;28;20571;-69
2022/03/19 07:08:50;;;;;;;50.37;36.47;;;5.70;99.90;;;;;;5050184;28;21138;-69
2022/03/19 07:11:16;;;;;;;51.60;36.50;;;5.80;99.90;;;;;;5049822;28;20491;-69
2022/03/19 07:13:45;;;;;;;51.03;36.90;;;5.90;99.90;;;;;;5049330;28;20452;-69
2022/03/19 07:16:12;;;;;;;49.67;36.47;;;6.00;99.90;;;;;;5048902;28;20883;-67
2022/03/19 07:18:39;;;;;;;47.27;36.20;;;6.10;99.90;;;;;;5049746;28;20961;-68
2022/03/19 07:21:05;;;;;;;49.03;36.00;;;6.20;99.90;;;;;;5049580;28;20456;-69
2022/03/19 07:23:32;;;;;;;47.43;34.53;;;6.30;99.90;;;;;;5049351;28;20456;-69
2022/03/19 07:26:01;;;;;;;45.00;34.20;;;6.40;99.90;;;;;;5048471;28;20479;-68
2022/03/19 07:28:28;;;;;;;42.57;32.87;;;6.40;99.90;;;;;;5049309;28;20752;-69
2022/03/19 07:30:57;;;;;;;42.60;32.90;;;6.60;99.90;;;;;;5049032;28;20450;-68
2022/03/19 07:33:24;;;;;;;43.30;33.50;;;6.60;99.90;;;;;;5049253;28;20861;-70
2022/03/19 07:35:51;;;;;;;45.13;32.87;;;6.80;99.90;;;;;;5048591;28;20817;-69
2022/03/19 07:38:18;;;;;;;47.90;33.93;;;6.90;99.90;;;;;;5049291;28;20471;-68
2022/03/19 07:43:31;;;;;;;44.87;31.80;;;7.10;99.90;;;;;;5049102;28;20431;-68
2022/03/19 07:45:59;;;;;;;42.20;31.57;;;7.10;99.90;;;;;;5048199;28;20842;-68
2022/03/19 07:48:26;;;;;;;36.97;30.70;;;7.20;99.90;;;;;;5049438;28;20536;-68
2022/03/19 07:50:53;;;;;;;44.73;32.47;;;7.20;99.90;;;;;;5049216;28;20808;-69
2022/03/19 07:53:20;;;;;;;38.73;29.70;;;7.30;99.90;;;;;;5049080;28;20462;-68
2022/03/19 07:55:47;;;;;;;41.63;30.67;;;7.40;99.90;;;;;;5048443;28;20442;-68
2022/03/19 07:58:14;;;;;;;39.40;29.60;;;7.40;99.90;;;;;;5049154;28;20472;-68
2022/03/19 08:00:41;;;;;;;41.57;31.67;;;7.50;99.90;;;;;;5049994;28;20455;-70
2022/03/19 08:03:09;;;;;;;35.90;29.03;;;7.60;99.90;;;;;;5051848;28;20452;-69
2022/03/19 08:05:36;;;;;;;42.43;29.87;;;7.70;99.90;;;;;;5051547;28;20483;-69
2022/03/19 08:08:05;;;;;;;38.80;29.23;;;7.70;99.90;;;;;;5052710;28;20551;-68
2022/03/19 08:10:34;;;;;;;37.10;31.07;;;7.80;99.90;;;;;;5052875;28;20447;-69
2022/03/19 08:13:05;;;;;;;38.27;29.80;;;7.90;99.90;;;;;;5052548;28;20448;-69
2022/03/19 08:15:32;;;;;;;41.47;29.90;;;8.00;99.90;;;;;;5051769;28;20447;-68
2022/03/19 08:18:00;;;;;;;40.67;28.50;;;8.10;99.90;;;;;;5052627;28;20551;-67
2022/03/19 08:20:28;;;;;;;38.23;30.10;;;8.20;99.90;;;;;;5052750;28;20448;-67
2022/03/19 08:22:56;;;;;;;32.50;27.17;;;8.20;99.90;;;;;;5045270;28;20452;-68
2022/03/19 08:25:23;;;;;;;39.57;29.17;;;8.30;99.90;;;;;;5051853;28;20491;-68
2022/03/19 08:27:51;;;;;;;31.30;26.47;;;8.50;99.90;;;;;;5052094;28;21008;-68
2022/03/19 08:30:19;;;;;;;36.10;27.80;;;8.60;99.90;;;;;;5052215;28;20961;-68
2022/03/19 08:32:46;;;;;;;40.63;30.50;;;8.60;99.90;;;;;;5052513;28;20459;-67
2022/03/19 08:35:13;;;;;;;37.37;29.17;;;8.70;99.90;;;;;;5050856;28;20462;-67
2022/03/19 08:37:41;;;;;;;35.67;28.17;;;8.90;99.90;;;;;;5052111;28;20472;-69
2022/03/19 08:40:18;;;;;;;30.90;24.70;;;9.10;99.90;;;;;;5052393;28;20530;-68
2022/03/19 08:42:48;;;;;;;31.40;26.30;;;9.20;99.90;;;;;;5052728;28;20454;-68
2022/03/19 08:45:15;;;;;;;33.10;26.27;;;9.30;99.90;;;;;;5050725;28;20442;-69
2022/03/19 08:47:42;;;;;;;32.13;25.70;;;9.40;99.90;;;;;;5052113;28;20558;-68
2022/03/19 08:50:09;;;;;;;29.60;24.70;;;9.60;99.90;;;;;;5052476;28;20502;-69
2022/03/19 08:52:37;;;;;;;32.47;25.90;;;9.70;99.90;;;;;;5052104;28;20970;-69
2022/03/19 08:55:06;;;;;;;34.87;26.73;;;9.70;99.90;;;;;;5051626;28;20509;-68
2022/03/19 08:57:33;;;;;;;35.80;28.90;;;9.80;99.90;;;;;;5052012;28;20464;-69
2022/03/19 09:00:01;;;;;;;32.60;26.40;;;9.90;99.90;;;;;;5052542;28;20456;-69
2022/03/19 09:02:28;;;;;;;34.03;27.00;;;10.10;99.90;;;;;;5052196;28;20464;-68
2022/03/19 09:04:55;;;;;;;36.20;26.60;;;10.30;99.90;;;;;;5051025;28;21035;-69
2022/03/19 09:07:21;;;;;;;30.03;26.87;;;10.50;99.90;;;;;;5052061;28;20574;-68
2022/03/19 09:09:52;;;;;;;35.03;28.47;;;10.50;99.90;;;;;;5051978;28;20464;-69
2022/03/19 09:12:23;;;;;;;31.80;27.00;;;10.40;99.90;;;;;;5051016;28;20440;-69
2022/03/19 09:14:50;;;;;;;33.60;27.23;;;10.40;99.90;;;;;;5051157;28;20502;-68
2022/03/19 09:17:17;;;;;;;31.90;26.67;;;10.50;99.90;;;;;;5051999;28;20970;-67
2022/03/19 09:19:44;;;;;;;37.20;28.97;;;10.50;99.90;;;;;;5052183;28;20456;-67
2022/03/19 09:22:12;;;;;;;31.87;26.70;;;10.50;99.90;;;;;;5049870;28;20460;-69
2022/03/19 09:24:39;;;;;;;31.23;24.77;;;10.60;99.90;;;;;;5048258;28;20483;-68
2022/03/19 09:27:06;;;;;;;32.47;27.70;;;10.90;99.90;;;;;;5047169;28;20550;-70
2022/03/19 09:29:34;;;;;;;32.50;27.83;;;11.20;99.90;;;;;;5050728;28;20513;-68
2022/03/19 09:32:02;;;;;;;35.17;28.03;;;11.50;99.90;;;;;;5051087;28;20523;-68
2022/03/19 09:34:29;;;;;;;30.83;27.43;;;11.80;99.70;;;;;;5049017;28;20444;-68
2022/03/19 09:36:56;;;;;;;33.97;28.70;;;11.80;99.10;;;;;;5051635;28;20507;-69
2022/03/19 09:39:23;;;;;;;33.60;28.50;;;11.80;99.40;;;;;;5051422;28;20710;-68
2022/03/19 09:41:50;;;;;;;28.80;25.70;;;11.80;97.80;;;;;;5051129;28;20832;-66
2022/03/19 09:44:17;;;;;;;31.90;26.20;;;11.90;98.70;;;;;;5050452;28;20494;-68
2022/03/19 09:46:47;;;;;;;31.93;28.47;;;12.00;98.70;;;;;;5047299;28;20492;-68
2022/03/19 09:49:15;;;;;;;33.83;28.43;;;12.10;97.90;;;;;;5051213;28;20484;-70
2022/03/19 09:51:44;;;;;;;34.07;29.77;;;12.20;98.20;;;;;;5051132;28;20559;-67
2022/03/19 09:54:13;;;;;;;36.17;29.23;;;12.50;98.10;;;;;;5050257;28;20470;-67
2022/03/19 09:56:40;;;;;;;33.10;29.13;;;12.40;96.70;;;;;;5050722;28;20472;-69
2022/03/19 09:59:07;;;;;;;32.63;27.73;;;12.50;96.70;;;;;;5051273;28;20578;-67
2022/03/19 10:01:37;;;;;;;32.40;26.47;;;12.60;95.40;;;;;;5047849;28;20920;-68
2022/03/19 10:04:08;;;;;;;34.03;28.70;;;12.10;95.70;;;;;;5048294;28;20539;-66
2022/03/19 10:09:32;;;;;;;34.47;29.13;;;12.10;96.80;;;;;;5050493;28;20542;-68
2022/03/19 10:12:01;;;;;;;33.33;29.40;;;12.00;96.20;;;;;;5045851;28;20529;-68
2022/03/19 10:14:28;;;;;;;35.17;28.77;;;11.90;97.40;;;;;;5043206;28;20452;-68
2022/03/19 10:16:57;;;;;;;36.57;30.10;;;12.00;96.70;;;;;;5050220;28;20463;-68
2022/03/19 10:19:25;;;;;;;36.23;30.43;;;12.10;96.40;;;;;;5044267;28;20471;-67
2022/03/19 10:21:54;;;;;;;36.50;28.83;;;12.20;96.40;;;;;;5050059;28;20436;-68
2022/03/19 10:24:23;;;;;;;32.50;28.63;;;12.60;97.70;;;;;;5049076;28;20872;-69
2022/03/19 10:26:51;;;;;;;35.53;29.30;;;13.10;96.60;;;;;;5050194;28;20495;-69
2022/03/19 10:29:28;;;;;;;35.40;30.47;;;13.50;95.90;;;;;;5050230;28;20825;-68
2022/03/19 10:32:00;;;;;;;33.23;29.60;;;13.80;95.40;;;;;;5047952;28;20889;-68
2022/03/19 10:34:30;;;;;;;33.77;30.07;;;13.80;94.50;;;;;;5049173;28;20483;-67
2022/03/19 10:36:57;;;;;;;36.03;30.63;;;14.20;94.30;;;;;;5050070;28;20540;-67
2022/03/19 10:39:27;;;;;;;36.93;32.43;;;14.40;94.50;;;;;;5050160;28;20436;-68
2022/03/19 10:41:55;;;;;;;36.60;31.70;;;14.40;93.80;;;;;;5049464;28;20488;-70
2022/03/19 10:44:25;;;;;;;34.00;30.23;;;14.00;93.70;;;;;;5048940;28;20459;-68
2022/03/19 10:46:53;;;;;;;37.67;31.00;;;14.10;93.60;;;;;;5050663;28;20591;-67
2022/03/19 10:49:23;;;;;;;35.70;28.00;;;14.30;94.00;;;;;;5053492;28;20553;-68
2022/03/19 10:51:53;;;;;;;30.47;26.47;;;14.40;93.60;;;;;;5047786;28;20444;-69
2022/03/19 10:54:22;;;;;;;29.53;24.70;;;14.00;92.60;;;;;;5045640;28;20988;-67
2022/03/19 10:56:50;;;;;;;30.00;25.20;;;13.10;92.40;;;;;;5046251;28;20479;-67
2022/03/19 10:59:18;;;;;;;25.23;21.53;;;13.30;94.70;;;;;;5047975;28;20440;-68
2022/03/19 11:01:48;;;;;;;24.23;19.10;;;13.90;93.20;;;;;;5049768;28;20510;-66
2022/03/19 11:04:16;;;;;;;22.37;19.63;;;14.00;91.20;;;;;;5039306;28;21033;-67
2022/03/19 11:06:46;;;;;;;21.60;18.27;;;13.90;91.10;;;;;;5045707;28;20495;-69
2022/03/19 11:09:15;;;;;;;20.47;16.53;;;14.10;90.30;;;;;;5049943;28;20444;-68
2022/03/19 11:11:50;;;;;;;22.03;17.30;;;14.50;88.50;;;;;;5049079;28;20455;-67
2022/03/19 11:14:23;;;;;;;23.70;18.63;;;14.90;87.20;;;;;;5048327;28;20442;-67
2022/03/19 11:19:41;;;;;;;19.53;14.47;;;14.20;85.30;;;;;;5031716;28;20424;-67
2022/03/19 11:22:08;;;;;;;17.83;13.87;;;13.30;85.90;;;;;;5048926;28;20572;-68
2022/03/19 11:24:45;;;;;;;18.47;14.53;;;13.80;89.60;;;;;;5047934;28;20787;-66
2022/03/19 11:27:12;;;;;;;14.53;12.80;;;14.50;86.90;;;;;;5048819;28;21313;-69
2022/03/19 11:29:41;;;;;;;17.40;14.33;;;14.50;86.50;;;;;;5048966;28;20527;-69
2022/03/19 11:32:08;;;;;;;16.00;13.93;;;15.10;85.50;;;;;;5045265;28;20464;-68
2022/03/19 11:34:45;;;;;;;16.70;14.17;;;15.50;84.00;;;;;;5047527;28;20797;-66
2022/03/19 11:37:13;;;;;;;15.10;12.67;;;15.90;85.50;;;;;;5048973;28;20509;-69
2022/03/19 11:40:02;;;;;;;17.43;15.10;;;16.60;82.50;;;;;;5049311;28;20451;-66
2022/03/19 11:42:30;;;;;;;15.27;13.60;;;17.10;80.90;;;;;;5049343;28;20432;-65
2022/03/19 11:45:08;;;;;;;16.80;12.93;;;17.50;80.90;;;;;;5047792;28;20471;-66
2022/03/19 11:47:35;;;;;;;16.27;12.90;;;18.00;77.90;;;;;;5044846;28;20495;-66
2022/03/19 11:50:03;;;;;;;15.07;12.70;;;18.10;76.70;;;;;;5049600;28;20444;-66
2022/03/19 11:53:07;;;;;;;14.60;12.80;;;17.90;72.70;;;;;;5048838;28;20947;-66
2022/03/19 11:55:43;;;;;;;16.00;11.80;;;16.80;76.20;;;;;;5046925;28;20506;-66
2022/03/19 11:58:14;;;;;;;15.63;11.80;;;17.30;78.00;;;;;;5042474;28;20459;-66
2022/03/19 12:00:41;;;;;;;13.70;11.57;;;17.80;72.60;;;;;;5042581;28;20535;-66
2022/03/19 12:03:10;;;;;;;12.67;11.03;;;16.80;73.90;;;;;;5049674;28;20485;-66
2022/03/19 12:05:39;;;;;;;15.07;12.00;;;17.40;73.90;;;;;;5039723;28;20539;-66
2022/03/19 12:08:09;;;;;;;14.67;11.83;;;18.20;74.20;;;;;;5047918;28;20582;-66
2022/03/19 12:10:54;;;;;;;15.13;13.20;;;19.20;71.90;;;;;;5048923;28;20444;-66
2022/03/19 12:13:42;;;;;;;17.73;13.57;;;19.60;68.20;;;;;;5047229;28;20443;-66
2022/03/19 12:16:12;;;;;;;13.40;11.70;;;20.50;67.60;;;;;;5047428;28;20468;-66
2022/03/19 12:18:46;;;;;;;16.00;12.87;;;20.60;65.70;;;;;;5048635;28;20440;-66
2022/03/19 12:21:21;;;;;;;14.07;12.37;;;18.80;63.10;;;;;;5042527;28;20480;-66
2022/03/19 12:24:14;;;;;;;13.53;11.40;;;17.20;69.50;;;;;;5048248;28;21124;-66
2022/03/19 12:26:44;;;;;;;17.23;12.57;;;15.90;65.60;;;;;;5049062;28;20534;-65
2022/03/19 12:29:12;;;;;;;14.40;12.30;;;14.90;71.10;;;;;;5048609;28;20962;-65
2022/03/19 12:31:42;;;;;;;13.03;10.90;;;15.50;72.70;;;;;;5048533;28;20931;-65
2022/03/19 12:34:15;;;;;;;10.93;9.00;;;16.40;68.70;;;;;;5047688;28;20463;-65
2022/03/19 12:36:42;;;;;;;13.20;10.40;;;17.50;64.50;;;;;;5048610;28;20566;-65
2022/03/19 12:39:10;;;;;;;13.17;10.47;;;18.20;64.30;;;;;;5048742;28;20460;-65
2022/03/19 12:41:37;;;;;;;11.50;9.33;;;18.20;61.50;;;;;;5048601;28;20550;-65
2022/03/19 12:44:08;;;;;;;13.57;10.33;;;18.20;63.40;;;;;;5047521;28;20546;-64
2022/03/19 12:46:36;;;;;;;11.70;9.00;;;16.60;61.40;;;;;;5048601;28;20537;-65
2022/03/19 12:49:08;;;;;;;11.13;9.73;;;16.10;65.20;;;;;;5052387;28;20531;-66
2022/03/19 12:51:36;;;;;;;10.67;9.27;;;16.40;64.70;;;;;;5052244;28;20482;-65
2022/03/19 12:54:17;;;;;;;11.87;9.97;;;17.80;65.60;;;;;;5051415;28;20448;-65
2022/03/19 12:56:44;;;;;;;10.27;9.20;;;19.60;61.30;;;;;;5052044;28;20467;-65
2022/03/19 12:59:19;;;;;;;16.90;10.90;;;20.40;56.60;;;;;;5051638;28;20451;-65